createdAt,value
2018-12-08T00:00:12.142Z,9.10
2018-12-08T00:02:39.688Z,9.50
2018-12-08T00:05:07.367Z,9.20
2018-12-08T00:07:34.803Z,9.20
2018-12-08T00:10:02.286Z,9.20
2018-12-08T00:12:29.841Z,8.90
2018-12-08T00:14:57.312Z,9.00
2018-12-08T00:17:24.741Z,9.10
2018-12-08T00:19:52.179Z,9.20
2018-12-08T00:22:19.618Z,9.20
2018-12-08T00:24:47.117Z,9.20
2018-12-08T00:27:14.575Z,9.20
2018-12-08T00:29:42.010Z,9.40
2018-12-08T00:32:09.453Z,9.70
2018-12-08T00:34:36.863Z,9.30
2018-12-08T00:37:04.368Z,8.90
2018-12-08T00:39:31.850Z,9.30
2018-12-08T00:41:59.314Z,9.60
2018-12-08T00:44:26.757Z,9.50
2018-12-08T00:46:54.412Z,9.50
2018-12-08T00:49:22.206Z,9.10
2018-12-08T00:51:49.768Z,8.80
2018-12-08T00:54:17.207Z,8.80
2018-12-08T00:56:44.684Z,9.10
2018-12-08T00:59:12.137Z,9.50
2018-12-08T01:01:39.696Z,9.20
2018-12-08T01:04:07.159Z,9.40
2018-12-08T01:06:34.611Z,9.20
2018-12-08T01:09:02.173Z,8.80
2018-12-08T01:11:30.014Z,8.80
2018-12-08T01:13:57.446Z,8.70
2018-12-08T01:16:24.949Z,9.20
2018-12-08T01:18:52.383Z,9.30
2018-12-08T01:21:19.805Z,9.10
2018-12-08T01:23:47.226Z,9.30
2018-12-08T01:26:14.687Z,9.20
2018-12-08T01:28:42.157Z,9.40
2018-12-08T01:31:09.701Z,9.30
2018-12-08T01:33:37.169Z,9.20
2018-12-08T01:36:04.814Z,9.20
2018-12-08T01:38:32.236Z,9.60
2018-12-08T01:40:59.745Z,9.30
2018-12-08T01:43:27.195Z,9.10
2018-12-08T01:45:54.645Z,9.10
2018-12-08T01:48:22.307Z,9.10
2018-12-08T01:50:49.789Z,9.10
2018-12-08T01:53:17.259Z,9.00
2018-12-08T01:55:44.796Z,9.20
2018-12-08T01:58:12.231Z,9.10
2018-12-08T02:00:39.703Z,9.20
2018-12-08T02:03:07.158Z,8.90
2018-12-08T02:05:34.581Z,9.10
2018-12-08T02:08:02.096Z,9.00
2018-12-08T02:10:29.523Z,9.00
2018-12-08T02:12:56.950Z,9.40
2018-12-08T02:15:24.382Z,8.90
2018-12-08T02:17:51.911Z,9.20
2018-12-08T02:20:19.351Z,9.10
2018-12-08T02:22:46.771Z,8.60
2018-12-08T02:25:14.218Z,8.70
2018-12-08T02:27:41.673Z,9.40
2018-12-08T02:30:09.651Z,9.40
2018-12-08T02:32:37.096Z,9.60
2018-12-08T02:35:04.680Z,10.30
2018-12-08T02:37:32.115Z,9.80
2018-12-08T02:39:59.566Z,9.40
2018-12-08T02:42:26.995Z,7.40
2018-12-08T02:44:54.522Z,9.20
2018-12-08T02:47:22.528Z,9.20
2018-12-08T02:49:49.950Z,9.40
2018-12-08T02:52:17.375Z,9.60
2018-12-08T02:54:44.897Z,9.40
2018-12-08T02:57:12.333Z,9.40
2018-12-08T02:59:39.753Z,9.30
2018-12-08T03:02:07.321Z,9.20
2018-12-08T03:04:34.852Z,9.20
2018-12-08T03:07:02.394Z,9.50
2018-12-08T03:09:29.822Z,9.70
2018-12-08T03:11:57.258Z,9.20
2018-12-08T03:14:24.702Z,9.00
2018-12-08T03:16:52.170Z,8.90
2018-12-08T03:19:19.598Z,9.70
2018-12-08T03:21:47.062Z,9.10
2018-12-08T03:24:14.610Z,9.30
2018-12-08T03:26:42.025Z,9.30
2018-12-08T03:29:09.447Z,9.10
2018-12-08T03:31:36.900Z,9.40
2018-12-08T03:34:04.402Z,9.80
2018-12-08T03:36:31.895Z,9.60
2018-12-08T03:38:59.407Z,9.90
2018-12-08T03:41:26.979Z,9.50
2018-12-08T03:43:54.402Z,9.60
2018-12-08T03:46:22.526Z,9.60
2018-12-08T03:48:49.997Z,9.70
2018-12-08T03:51:17.573Z,9.70
2018-12-08T03:53:45.048Z,9.90
2018-12-08T03:56:12.678Z,9.80
2018-12-08T03:58:40.175Z,9.40
2018-12-08T04:01:07.735Z,9.30
2018-12-08T04:03:35.366Z,9.50
2018-12-08T04:06:02.914Z,9.70
2018-12-08T04:08:30.346Z,9.60
2018-12-08T04:10:57.793Z,9.90
2018-12-08T04:13:25.446Z,9.80
2018-12-08T04:15:53.055Z,10.10
2018-12-08T04:18:20.486Z,9.50
2018-12-08T04:20:47.966Z,9.60
2018-12-08T04:23:15.440Z,9.40
2018-12-08T04:25:42.846Z,9.60
2018-12-08T04:28:10.346Z,9.90
2018-12-08T04:30:37.825Z,10.00
2018-12-08T04:33:05.254Z,9.90
2018-12-08T04:35:32.685Z,9.90
2018-12-08T04:38:00.119Z,9.80
2018-12-08T04:40:27.540Z,9.80
2018-12-08T04:42:54.968Z,9.60
2018-12-08T04:45:22.675Z,9.20
2018-12-08T04:47:50.151Z,9.20
2018-12-08T04:50:17.605Z,9.10
2018-12-08T04:52:45.053Z,9.30
2018-12-08T04:55:12.494Z,9.10
2018-12-08T04:57:40.023Z,9.50
2018-12-08T05:00:07.703Z,9.50
2018-12-08T05:02:35.255Z,9.40
2018-12-08T05:05:02.713Z,9.60
2018-12-08T05:07:30.143Z,9.50
2018-12-08T05:09:57.559Z,9.70
2018-12-08T05:12:24.986Z,9.50
2018-12-08T05:14:52.445Z,10.00
2018-12-08T05:17:19.928Z,10.20
2018-12-08T05:19:47.371Z,10.10
2018-12-08T05:22:14.814Z,9.60
2018-12-08T05:24:42.271Z,9.40
2018-12-08T05:27:09.758Z,9.50
2018-12-08T05:29:37.188Z,9.30
2018-12-08T05:32:04.617Z,9.30
2018-12-08T05:34:32.081Z,9.20
2018-12-08T05:36:59.551Z,9.20
2018-12-08T05:39:27.016Z,9.20
2018-12-08T05:41:54.477Z,9.30
2018-12-08T05:44:22.847Z,9.40
2018-12-08T05:46:50.338Z,9.50
2018-12-08T05:49:17.752Z,9.70
2018-12-08T05:51:45.306Z,9.60
2018-12-08T05:54:12.725Z,9.20
2018-12-08T05:56:40.246Z,9.20
2018-12-08T05:59:07.698Z,9.40
2018-12-08T06:01:35.170Z,9.30
2018-12-08T06:04:02.594Z,9.40
2018-12-08T06:06:30.042Z,9.70
2018-12-08T06:08:57.495Z,9.20
2018-12-08T06:11:24.941Z,9.40
2018-12-08T06:13:52.453Z,9.20
2018-12-08T06:16:19.895Z,9.30
2018-12-08T06:18:47.332Z,9.10
2018-12-08T06:21:14.826Z,9.10
2018-12-08T06:23:42.251Z,9.30
2018-12-08T06:26:09.684Z,8.90
2018-12-08T06:28:38.897Z,9.10
2018-12-08T06:31:06.481Z,9.30
2018-12-08T06:33:33.928Z,9.50
2018-12-08T06:36:01.354Z,9.30
2018-12-08T06:38:28.820Z,8.90
2018-12-08T06:40:56.273Z,9.20
2018-12-08T06:43:23.717Z,9.20
2018-12-08T06:45:51.237Z,9.10
2018-12-08T06:48:18.705Z,9.10
2018-12-08T06:50:46.157Z,9.10
2018-12-08T06:53:13.619Z,9.10
2018-12-08T06:55:41.199Z,9.20
2018-12-08T06:58:08.639Z,9.20
2018-12-08T07:00:36.094Z,9.30
2018-12-08T07:03:03.553Z,9.60
2018-12-08T07:05:31.024Z,9.50
2018-12-08T07:07:58.465Z,9.00
2018-12-08T07:10:25.896Z,9.20
2018-12-08T07:12:53.409Z,9.30
2018-12-08T07:15:20.874Z,9.50
2018-12-08T07:17:48.409Z,9.60
2018-12-08T07:20:15.833Z,9.50
2018-12-08T07:22:43.317Z,9.80
2018-12-08T07:25:10.771Z,9.40
2018-12-08T07:27:38.317Z,9.50
2018-12-08T07:30:07.959Z,9.80
2018-12-08T07:32:38.779Z,9.70
2018-12-08T07:35:05.601Z,9.60
2018-12-08T07:37:33.107Z,9.40
2018-12-08T07:40:00.652Z,9.70
2018-12-08T07:42:28.154Z,9.40
2018-12-08T07:44:55.578Z,9.50
2018-12-08T07:47:23.188Z,9.40
2018-12-08T07:49:50.656Z,9.80
2018-12-08T07:52:18.105Z,9.70
2018-12-08T07:54:45.560Z,9.30
2018-12-08T07:57:13.041Z,9.10
2018-12-08T07:59:40.482Z,9.20
2018-12-08T08:02:08.651Z,9.30
2018-12-08T08:04:36.085Z,9.20
2018-12-08T08:07:03.604Z,9.00
2018-12-08T08:09:31.025Z,9.00
2018-12-08T08:11:58.483Z,9.20
2018-12-08T08:14:25.908Z,9.50
2018-12-08T08:16:53.411Z,9.30
2018-12-08T08:19:20.860Z,9.20
2018-12-08T08:21:48.335Z,9.10
2018-12-08T08:24:15.773Z,9.10
2018-12-08T08:26:43.214Z,9.30
2018-12-08T08:29:10.737Z,9.30
2018-12-08T08:31:38.265Z,9.30
2018-12-08T08:34:05.793Z,9.20
2018-12-08T08:36:33.241Z,9.00
2018-12-08T08:39:00.769Z,9.20
2018-12-08T08:41:28.324Z,9.30
2018-12-08T08:43:56.287Z,9.30
2018-12-08T08:46:23.878Z,9.20
2018-12-08T08:48:51.437Z,9.30
2018-12-08T08:51:18.957Z,9.30
2018-12-08T08:53:46.521Z,9.00
2018-12-08T08:56:13.970Z,8.90
2018-12-08T08:58:41.433Z,9.70
2018-12-08T09:01:08.953Z,9.60
2018-12-08T09:03:36.378Z,9.50
2018-12-08T09:06:03.850Z,9.80
2018-12-08T09:08:31.291Z,9.50
2018-12-08T09:10:58.713Z,9.50
2018-12-08T09:13:26.486Z,9.30
2018-12-08T09:15:53.924Z,9.10
2018-12-08T09:18:21.406Z,9.20
2018-12-08T09:20:48.961Z,9.20
2018-12-08T09:23:16.413Z,9.20
2018-12-08T09:25:43.830Z,9.40
2018-12-08T09:28:11.258Z,9.70
2018-12-08T09:30:38.683Z,9.80
2018-12-08T09:33:06.171Z,9.70
2018-12-08T09:35:33.735Z,9.90
2018-12-08T09:38:01.173Z,10.00
2018-12-08T09:40:28.626Z,9.70
2018-12-08T09:42:56.049Z,9.50
2018-12-08T09:45:23.478Z,9.40
2018-12-08T09:47:50.914Z,9.30
2018-12-08T09:50:18.345Z,9.40
2018-12-08T09:52:49.637Z,9.40
2018-12-08T09:55:17.071Z,9.30
2018-12-08T09:57:44.508Z,9.50
2018-12-08T10:00:11.946Z,9.10
2018-12-08T10:02:39.366Z,9.20
2018-12-08T10:05:06.869Z,9.40
2018-12-08T10:07:34.338Z,9.20
2018-12-08T10:10:01.794Z,9.20
2018-12-08T10:12:29.235Z,9.50
2018-12-08T10:14:56.678Z,9.80
2018-12-08T10:17:24.120Z,9.50
2018-12-08T10:19:51.554Z,9.70
2018-12-08T10:22:19.097Z,9.30
2018-12-08T10:24:46.556Z,9.50
2018-12-08T10:27:13.961Z,9.50
2018-12-08T10:29:41.489Z,9.50
2018-12-08T10:32:08.918Z,9.60
2018-12-08T10:34:36.410Z,9.90
2018-12-08T10:37:03.922Z,9.60
2018-12-08T10:39:31.335Z,9.50
2018-12-08T10:41:58.860Z,10.00
2018-12-08T10:44:26.416Z,10.00
2018-12-08T10:46:53.871Z,9.90
2018-12-08T10:49:21.351Z,9.80
2018-12-08T10:51:48.889Z,9.80
2018-12-08T10:54:16.326Z,9.70
2018-12-08T10:56:43.767Z,9.50
2018-12-08T10:59:11.313Z,9.60
2018-12-08T11:01:44.402Z,9.80
2018-12-08T11:04:11.877Z,9.90
2018-12-08T11:06:39.347Z,9.50
2018-12-08T11:09:07.150Z,9.60
2018-12-08T11:11:34.665Z,9.70
2018-12-08T11:14:02.186Z,9.60
2018-12-08T11:16:29.651Z,9.70
2018-12-08T11:18:57.108Z,9.90
2018-12-08T11:21:24.556Z,10.10
2018-12-08T11:23:52.010Z,10.00
2018-12-08T11:26:19.451Z,10.20
2018-12-08T11:28:46.884Z,10.20
2018-12-08T11:31:14.356Z,10.50
2018-12-08T11:33:41.837Z,10.20
2018-12-08T11:36:09.402Z,10.10
2018-12-08T11:38:36.857Z,10.20
2018-12-08T11:41:04.416Z,10.20
2018-12-08T11:43:31.875Z,10.50
2018-12-08T11:45:59.348Z,10.40
2018-12-08T11:48:26.806Z,10.30
2018-12-08T11:50:54.329Z,10.30
2018-12-08T11:53:21.759Z,10.40
2018-12-08T11:55:49.348Z,11.00
2018-12-08T11:58:16.855Z,10.40
2018-12-08T12:00:44.394Z,10.50
2018-12-08T12:03:11.835Z,10.50
2018-12-08T12:05:39.289Z,10.30
2018-12-08T12:08:06.762Z,10.20
2018-12-08T12:10:34.303Z,10.20
2018-12-08T12:13:01.730Z,10.50
2018-12-08T12:15:29.211Z,10.70
2018-12-08T12:17:56.677Z,10.70
2018-12-08T12:20:24.341Z,10.70
2018-12-08T12:22:51.789Z,10.30
2018-12-08T12:25:19.543Z,10.50
2018-12-08T12:27:47.310Z,10.50
2018-12-08T12:30:14.820Z,10.60
2018-12-08T12:32:42.243Z,10.60
2018-12-08T12:35:09.685Z,10.70
2018-12-08T12:37:37.111Z,10.50
2018-12-08T12:40:04.701Z,10.20
2018-12-08T12:42:32.164Z,10.60
2018-12-08T12:44:59.619Z,10.60
2018-12-08T12:47:27.134Z,10.80
2018-12-08T12:49:54.647Z,11.10
2018-12-08T12:52:22.114Z,11.30
2018-12-08T12:54:49.543Z,11.50
2018-12-08T12:57:17.193Z,11.10
2018-12-08T12:59:44.681Z,11.50
2018-12-08T13:02:12.515Z,11.60
2018-12-08T13:04:39.939Z,11.20
2018-12-08T13:07:07.387Z,11.60
2018-12-08T13:09:34.822Z,11.50
2018-12-08T13:12:02.593Z,11.30
2018-12-08T13:14:30.036Z,10.80
2018-12-08T13:16:57.462Z,11.00
2018-12-08T13:19:24.895Z,11.00
2018-12-08T13:21:52.427Z,11.20
2018-12-08T13:24:19.857Z,11.10
2018-12-08T13:26:47.284Z,11.60
2018-12-08T13:29:14.789Z,11.00
2018-12-08T13:31:42.351Z,11.20
2018-12-08T13:34:24.542Z,11.50
2018-12-08T13:36:52.233Z,11.20
2018-12-08T13:39:19.722Z,11.00
2018-12-08T13:41:47.230Z,11.00
2018-12-08T13:44:26.702Z,11.00
2018-12-08T13:46:54.226Z,11.00
2018-12-08T13:49:21.677Z,11.10
2018-12-08T13:51:49.120Z,11.20
2018-12-08T13:57:21.121Z,11.00
2018-12-08T13:59:50.939Z,10.80
2018-12-08T14:02:18.393Z,10.80
2018-12-08T14:04:45.828Z,11.10
2018-12-08T14:07:13.256Z,11.10
2018-12-08T14:09:40.683Z,11.00
2018-12-08T14:12:08.139Z,11.10
2018-12-08T14:14:35.673Z,11.30
2018-12-08T14:17:03.127Z,11.20
2018-12-08T14:19:30.551Z,11.90
2018-12-08T14:21:58.034Z,11.50
2018-12-08T14:24:25.465Z,11.10
2018-12-08T14:26:52.912Z,10.80
2018-12-08T14:29:20.431Z,11.30
2018-12-08T14:31:47.989Z,11.20
2018-12-08T14:34:15.538Z,11.00
2018-12-08T14:36:43.001Z,11.20
2018-12-08T14:39:10.436Z,10.90
2018-12-08T14:41:37.882Z,11.00
2018-12-08T14:44:05.372Z,10.80
2018-12-08T14:46:32.929Z,10.40
2018-12-08T14:49:00.395Z,10.70
2018-12-08T14:51:27.832Z,10.80
2018-12-08T14:53:57.173Z,11.10
2018-12-08T14:56:24.613Z,11.50
2018-12-08T14:58:52.094Z,11.70
2018-12-08T15:01:19.542Z,11.40
2018-12-08T15:03:47.063Z,11.20
2018-12-08T15:06:14.520Z,11.20
2018-12-08T15:08:42.004Z,11.20
2018-12-08T15:11:09.434Z,11.30
2018-12-08T15:13:36.897Z,11.00
2018-12-08T15:16:04.371Z,10.90
2018-12-08T15:18:31.827Z,10.80
2018-12-08T15:20:59.293Z,10.90
2018-12-08T15:23:26.745Z,10.80
2018-12-08T15:25:54.853Z,10.80
2018-12-08T15:28:22.293Z,11.00
2018-12-08T15:30:49.749Z,11.10
2018-12-08T15:33:17.162Z,11.10
2018-12-08T15:35:44.590Z,11.20
2018-12-08T15:38:12.022Z,11.10
2018-12-08T15:40:39.490Z,11.10
2018-12-08T15:43:07.022Z,11.10
2018-12-08T15:45:34.577Z,11.40
2018-12-08T15:48:02.037Z,11.40
2018-12-08T15:50:29.586Z,11.40
2018-12-08T15:52:57.083Z,11.50
2018-12-08T15:55:24.514Z,11.80
2018-12-08T15:57:51.972Z,11.80
2018-12-08T16:00:19.467Z,11.70
2018-12-08T16:02:46.926Z,11.60
2018-12-08T16:05:14.450Z,11.90
2018-12-08T16:07:41.906Z,12.00
2018-12-08T16:10:09.461Z,12.20
2018-12-08T16:12:36.939Z,12.30
2018-12-08T16:15:05.607Z,12.10
2018-12-08T16:17:33.068Z,11.60
2018-12-08T16:20:00.534Z,11.50
2018-12-08T16:22:28.016Z,11.50
2018-12-08T16:24:55.679Z,11.80
2018-12-08T16:27:24.130Z,11.80
2018-12-08T16:29:51.586Z,11.90
2018-12-08T16:32:19.037Z,12.20
2018-12-08T16:34:46.489Z,12.30
2018-12-08T16:37:13.974Z,12.50
2018-12-08T16:39:41.409Z,12.40
2018-12-08T16:42:08.878Z,11.70
2018-12-08T16:44:36.369Z,11.90
2018-12-08T16:47:03.826Z,11.90
2018-12-08T16:49:31.385Z,11.90
2018-12-08T16:51:58.818Z,11.80
2018-12-08T16:54:26.262Z,11.90
2018-12-08T16:56:53.692Z,12.30
2018-12-08T16:59:21.175Z,12.10
2018-12-08T17:01:51.892Z,12.10
2018-12-08T17:04:20.679Z,11.70
2018-12-08T17:06:48.590Z,12.00
2018-12-08T17:09:16.074Z,12.20
2018-12-08T17:11:43.630Z,12.20
2018-12-08T17:14:11.051Z,11.90
2018-12-08T17:16:38.632Z,12.00
2018-12-08T17:19:06.092Z,12.20
2018-12-08T17:21:33.577Z,11.80
2018-12-08T17:24:01.082Z,12.10
2018-12-08T17:26:28.642Z,12.20
2018-12-08T17:28:56.098Z,12.00
2018-12-08T17:31:24.313Z,11.90
2018-12-08T17:33:51.780Z,12.00
2018-12-08T17:36:19.209Z,11.70
2018-12-08T17:38:46.663Z,11.50
2018-12-08T17:41:14.162Z,11.60
2018-12-08T17:43:41.605Z,11.80
2018-12-08T17:46:09.138Z,12.10
2018-12-08T17:48:36.602Z,11.20
2018-12-08T17:51:04.156Z,11.50
2018-12-08T17:53:31.585Z,11.70
2018-12-08T17:55:59.014Z,11.90
2018-12-08T17:58:26.488Z,11.80
2018-12-08T18:00:53.943Z,11.50
2018-12-08T18:03:21.445Z,11.40
2018-12-08T18:05:48.979Z,11.70
2018-12-08T18:08:16.471Z,12.10
2018-12-08T18:10:43.944Z,12.00
2018-12-08T18:13:11.390Z,11.90
2018-12-08T18:15:38.848Z,11.50
2018-12-08T18:18:06.384Z,11.30
2018-12-08T18:20:33.818Z,11.00
2018-12-08T18:23:01.275Z,11.10
2018-12-08T18:25:28.714Z,11.20
2018-12-08T18:27:56.144Z,10.90
2018-12-08T18:30:24.594Z,10.90
2018-12-08T18:32:52.052Z,11.10
2018-12-08T18:35:19.510Z,11.10
2018-12-08T18:37:46.943Z,11.40
2018-12-08T18:40:14.411Z,11.40
2018-12-08T18:42:41.866Z,11.30
2018-12-08T18:45:09.353Z,11.30
2018-12-08T18:47:36.794Z,11.30
2018-12-08T18:50:06.685Z,11.00
2018-12-08T18:52:34.110Z,11.00
2018-12-08T18:55:01.627Z,11.00
2018-12-08T18:57:29.089Z,11.00
2018-12-08T18:59:56.555Z,11.10
2018-12-08T19:02:24.642Z,11.30
2018-12-08T19:04:52.100Z,11.40
2018-12-08T19:07:19.541Z,11.60
2018-12-08T19:09:46.986Z,11.50
2018-12-08T19:12:14.405Z,11.20
2018-12-08T19:14:41.831Z,11.40
2018-12-08T19:17:09.358Z,11.20
2018-12-08T19:19:36.810Z,11.30
2018-12-08T19:22:04.282Z,11.20
2018-12-08T19:24:31.699Z,11.30
2018-12-08T19:26:59.130Z,11.40
2018-12-08T19:29:26.563Z,11.10
2018-12-08T19:31:53.986Z,11.50
2018-12-08T19:34:21.435Z,11.10
2018-12-08T19:36:48.873Z,11.40
2018-12-08T19:39:16.334Z,11.20
2018-12-08T19:41:43.834Z,11.60
2018-12-08T19:44:11.401Z,11.60
2018-12-08T19:46:38.841Z,11.30
2018-12-08T19:49:06.279Z,11.20
2018-12-08T19:51:33.764Z,11.50
2018-12-08T19:54:01.188Z,11.60
2018-12-08T19:56:28.618Z,11.50
2018-12-08T19:58:56.063Z,11.20
2018-12-08T20:01:23.530Z,11.50
2018-12-08T20:03:50.995Z,11.60
2018-12-08T20:06:18.451Z,11.50
2018-12-08T20:08:45.897Z,11.60
2018-12-08T20:11:13.422Z,11.00
2018-12-08T20:13:40.873Z,11.30
2018-12-08T20:16:08.297Z,11.20
2018-12-08T20:18:35.914Z,11.30
2018-12-08T20:21:03.373Z,11.10
2018-12-08T20:23:30.822Z,11.30
2018-12-08T20:25:58.245Z,11.50
2018-12-08T20:28:25.670Z,11.60
2018-12-08T20:30:53.108Z,11.60
2018-12-08T20:33:20.527Z,11.40
2018-12-08T20:35:48.081Z,11.30
2018-12-08T20:38:15.509Z,11.10
2018-12-08T20:40:42.949Z,11.10
2018-12-08T20:43:10.414Z,11.20
2018-12-08T20:45:37.830Z,11.00
2018-12-08T20:48:05.267Z,11.10
2018-12-08T20:50:32.756Z,11.10
2018-12-08T20:53:00.182Z,11.60
2018-12-08T20:55:27.606Z,11.40
2018-12-08T20:57:55.040Z,11.40
2018-12-08T21:00:22.582Z,11.10
2018-12-08T21:02:50.039Z,11.20
2018-12-08T21:05:17.517Z,11.40
2018-12-08T21:07:44.957Z,11.40
2018-12-08T21:10:12.557Z,11.60
2018-12-08T21:12:39.998Z,11.50
2018-12-08T21:15:07.530Z,11.50
2018-12-08T21:17:34.978Z,11.00
2018-12-08T21:20:02.457Z,11.20
2018-12-08T21:22:29.881Z,11.80
2018-12-08T21:24:57.479Z,11.50
2018-12-08T21:27:24.925Z,11.30
2018-12-08T21:29:52.351Z,11.60
2018-12-08T21:32:19.781Z,11.90
2018-12-08T21:34:47.594Z,12.20
2018-12-08T21:37:15.057Z,11.70
2018-12-08T21:39:42.497Z,11.60
2018-12-08T21:42:10.012Z,11.30
2018-12-08T21:44:37.466Z,11.50
2018-12-08T21:47:05.029Z,11.80
2018-12-08T21:49:32.555Z,11.50
2018-12-08T21:52:00.022Z,11.30
2018-12-08T21:54:27.489Z,11.20
2018-12-08T21:56:54.925Z,11.20
2018-12-08T21:59:22.361Z,11.30
2018-12-08T22:01:49.824Z,11.10
2018-12-08T22:04:17.248Z,11.10
2018-12-08T22:06:44.773Z,11.00
2018-12-08T22:09:12.210Z,11.40
2018-12-08T22:11:39.768Z,11.60
2018-12-08T22:14:07.230Z,11.30
2018-12-08T22:16:34.666Z,11.30
2018-12-08T22:19:02.081Z,11.60
2018-12-08T22:21:29.513Z,11.80
2018-12-08T22:23:56.942Z,11.30
2018-12-08T22:26:25.042Z,11.40
2018-12-08T22:28:52.482Z,11.20
2018-12-08T22:31:19.949Z,11.30
2018-12-08T22:33:47.402Z,11.20
2018-12-08T22:36:14.838Z,11.30
2018-12-08T22:38:42.298Z,11.60
2018-12-08T22:41:09.726Z,11.70
2018-12-08T22:43:37.158Z,11.40
2018-12-08T22:46:04.696Z,11.50
2018-12-08T22:48:33.910Z,11.70
2018-12-08T22:51:01.658Z,11.80
2018-12-08T22:53:29.132Z,11.90
2018-12-08T22:55:56.558Z,11.80
2018-12-08T22:58:24.961Z,11.80
2018-12-08T23:00:52.458Z,11.70
2018-12-08T23:03:19.938Z,11.70
2018-12-08T23:05:47.390Z,11.70
2018-12-08T23:08:14.974Z,11.70
2018-12-08T23:10:42.471Z,12.00
2018-12-08T23:13:09.933Z,11.70
2018-12-08T23:15:37.418Z,11.90
2018-12-08T23:18:04.956Z,12.00
2018-12-08T23:20:32.386Z,12.00
2018-12-08T23:22:59.834Z,12.50
2018-12-08T23:25:27.424Z,12.20
2018-12-08T23:27:54.847Z,12.60
2018-12-08T23:30:22.333Z,11.80
2018-12-08T23:32:49.798Z,11.90
2018-12-08T23:35:17.334Z,12.00
2018-12-08T23:37:44.793Z,12.00
2018-12-08T23:40:12.366Z,11.80
2018-12-08T23:42:39.910Z,11.80
2018-12-08T23:45:07.402Z,11.70
2018-12-08T23:47:34.922Z,11.40
2018-12-08T23:50:02.408Z,11.70
2018-12-08T23:52:29.939Z,11.60
2018-12-08T23:54:57.529Z,11.50
2018-12-08T23:57:25.209Z,11.40
2018-12-08T23:59:52.650Z,10.90
